sensor_id;sensor_type;location;lat;lon;timestamp;P1;durP1;ratioP1;P2;durP2;ratioP2
3006;SDS011;1513;47.650;10.720;2024-02-26T00:00:55;1.23;;;0.50;;
3006;SDS011;1513;47.650;10.720;2024-02-26T00:03:21;0.50;;;0.40;;
3006;SDS011;1513;47.650;10.720;2024-02-26T00:05:47;0.50;;;0.50;;
3006;SDS011;1513;47.650;10.720;2024-02-26T00:08:13;0.60;;;0.50;;
3006;SDS011;1513;47.650;10.720;2024-02-26T00:10:40;0.80;;;0.70;;
3006;SDS011;1513;47.650;10.720;2024-02-26T00:13:06;0.60;;;0.60;;
3006;SDS011;1513;47.650;10.720;2024-02-26T00:15:32;0.40;;;0.40;;
3006;SDS011;1513;47.650;10.720;2024-02-26T00:18:00;0.87;;;0.40;;
3006;SDS011;1513;47.650;10.720;2024-02-26T00:20:26;1.23;;;0.50;;
3006;SDS011;1513;47.650;10.720;2024-02-26T00:22:53;0.30;;;0.30;;
3006;SDS011;1513;47.650;10.720;2024-02-26T00:25:19;0.40;;;0.40;;
3006;SDS011;1513;47.650;10.720;2024-02-26T00:27:45;0.47;;;0.47;;
3006;SDS011;1513;47.650;10.720;2024-02-26T00:30:11;3.90;;;0.50;;
3006;SDS011;1513;47.650;10.720;2024-02-26T00:32:37;0.40;;;0.40;;
3006;SDS011;1513;47.650;10.720;2024-02-26T00:35:04;1.90;;;0.80;;
3006;SDS011;1513;47.650;10.720;2024-02-26T00:37:30;0.30;;;0.30;;
3006;SDS011;1513;47.650;10.720;2024-02-26T00:39:56;0.40;;;0.40;;
3006;SDS011;1513;47.650;10.720;2024-02-26T00:42:23;0.60;;;0.60;;
3006;SDS011;1513;47.650;10.720;2024-02-26T00:44:49;0.40;;;0.40;;
3006;SDS011;1513;47.650;10.720;2024-02-26T00:47:15;0.40;;;0.40;;
3006;SDS011;1513;47.650;10.720;2024-02-26T00:49:41;0.87;;;0.40;;
3006;SDS011;1513;47.650;10.720;2024-02-26T00:52:07;0.50;;;0.50;;
3006;SDS011;1513;47.650;10.720;2024-02-26T00:54:34;0.50;;;0.50;;
3006;SDS011;1513;47.650;10.720;2024-02-26T00:57:00;0.40;;;0.40;;
3006;SDS011;1513;47.650;10.720;2024-02-26T00:59:26;0.40;;;0.40;;
3006;SDS011;1513;47.650;10.720;2024-02-26T01:01:52;0.50;;;0.50;;
3006;SDS011;1513;47.650;10.720;2024-02-26T01:04:18;0.40;;;0.30;;
3006;SDS011;1513;47.650;10.720;2024-02-26T01:06:44;0.57;;;0.40;;
3006;SDS011;1513;47.650;10.720;2024-02-26T01:09:11;0.47;;;0.47;;
3006;SDS011;1513;47.650;10.720;2024-02-26T01:11:37;0.80;;;0.40;;
3006;SDS011;1513;47.650;10.720;2024-02-26T01:14:03;0.60;;;0.37;;
3006;SDS011;1513;47.650;10.720;2024-02-26T01:16:30;0.50;;;0.40;;
3006;SDS011;1513;47.650;10.720;2024-02-26T01:18:57;0.50;;;0.40;;
3006;SDS011;1513;47.650;10.720;2024-02-26T01:21:23;0.40;;;0.40;;
3006;SDS011;1513;47.650;10.720;2024-02-26T01:23:49;0.40;;;0.40;;
3006;SDS011;1513;47.650;10.720;2024-02-26T01:26:15;0.40;;;0.40;;
3006;SDS011;1513;47.650;10.720;2024-02-26T01:28:41;0.40;;;0.37;;
3006;SDS011;1513;47.650;10.720;2024-02-26T01:31:09;0.40;;;0.30;;
3006;SDS011;1513;47.650;10.720;2024-02-26T01:33:35;0.40;;;0.40;;
3006;SDS011;1513;47.650;10.720;2024-02-26T01:36:01;0.40;;;0.40;;
3006;SDS011;1513;47.650;10.720;2024-02-26T01:38:28;0.50;;;0.50;;
3006;SDS011;1513;47.650;10.720;2024-02-26T01:40:54;0.40;;;0.37;;
3006;SDS011;1513;47.650;10.720;2024-02-26T01:43:20;0.77;;;0.30;;
3006;SDS011;1513;47.650;10.720;2024-02-26T01:45:47;0.37;;;0.33;;
3006;SDS011;1513;47.650;10.720;2024-02-26T01:48:13;0.50;;;0.50;;
3006;SDS011;1513;47.650;10.720;2024-02-26T01:50:39;0.80;;;0.60;;
3006;SDS011;1513;47.650;10.720;2024-02-26T01:53:06;0.80;;;0.40;;
3006;SDS011;1513;47.650;10.720;2024-02-26T01:55:33;0.40;;;0.30;;
3006;SDS011;1513;47.650;10.720;2024-02-26T01:57:59;0.40;;;0.40;;
3006;SDS011;1513;47.650;10.720;2024-02-26T02:00:25;0.40;;;0.37;;
3006;SDS011;1513;47.650;10.720;2024-02-26T02:02:53;0.40;;;0.40;;
3006;SDS011;1513;47.650;10.720;2024-02-26T02:05:20;3.90;;;0.40;;
3006;SDS011;1513;47.650;10.720;2024-02-26T02:07:47;1.70;;;0.33;;
3006;SDS011;1513;47.650;10.720;2024-02-26T02:10:14;0.40;;;0.37;;
3006;SDS011;1513;47.650;10.720;2024-02-26T02:12:41;0.40;;;0.40;;
3006;SDS011;1513;47.650;10.720;2024-02-26T02:15:08;0.40;;;0.30;;
3006;SDS011;1513;47.650;10.720;2024-02-26T02:17:34;0.37;;;0.30;;
3006;SDS011;1513;47.650;10.720;2024-02-26T02:20:00;0.40;;;0.40;;
3006;SDS011;1513;47.650;10.720;2024-02-26T02:22:28;0.97;;;0.30;;
3006;SDS011;1513;47.650;10.720;2024-02-26T02:24:57;0.30;;;0.30;;
3006;SDS011;1513;47.650;10.720;2024-02-26T02:27:24;0.40;;;0.40;;
3006;SDS011;1513;47.650;10.720;2024-02-26T02:29:50;0.37;;;0.33;;
3006;SDS011;1513;47.650;10.720;2024-02-26T02:32:16;0.30;;;0.30;;
3006;SDS011;1513;47.650;10.720;2024-02-26T02:34:43;0.40;;;0.40;;
3006;SDS011;1513;47.650;10.720;2024-02-26T02:37:10;0.40;;;0.40;;
3006;SDS011;1513;47.650;10.720;2024-02-26T02:39:36;0.40;;;0.40;;
3006;SDS011;1513;47.650;10.720;2024-02-26T02:42:02;0.40;;;0.40;;
3006;SDS011;1513;47.650;10.720;2024-02-26T02:44:28;0.50;;;0.40;;
3006;SDS011;1513;47.650;10.720;2024-02-26T02:46:55;0.60;;;0.53;;
3006;SDS011;1513;47.650;10.720;2024-02-26T02:49:21;0.50;;;0.50;;
3006;SDS011;1513;47.650;10.720;2024-02-26T02:51:48;0.50;;;0.40;;
3006;SDS011;1513;47.650;10.720;2024-02-26T02:54:15;1.00;;;0.57;;
3006;SDS011;1513;47.650;10.720;2024-02-26T02:56:41;0.57;;;0.40;;
3006;SDS011;1513;47.650;10.720;2024-02-26T02:59:07;0.40;;;0.30;;
3006;SDS011;1513;47.650;10.720;2024-02-26T03:01:33;0.70;;;0.33;;
3006;SDS011;1513;47.650;10.720;2024-02-26T03:03:59;0.73;;;0.70;;
3006;SDS011;1513;47.650;10.720;2024-02-26T03:06:25;0.50;;;0.50;;
3006;SDS011;1513;47.650;10.720;2024-02-26T03:08:53;0.63;;;0.63;;
3006;SDS011;1513;47.650;10.720;2024-02-26T03:11:20;3.43;;;0.50;;
3006;SDS011;1513;47.650;10.720;2024-02-26T03:13:46;0.70;;;0.60;;
3006;SDS011;1513;47.650;10.720;2024-02-26T03:16:12;0.40;;;0.40;;
3006;SDS011;1513;47.650;10.720;2024-02-26T03:18:39;1.60;;;0.60;;
3006;SDS011;1513;47.650;10.720;2024-02-26T03:21:05;0.60;;;0.60;;
3006;SDS011;1513;47.650;10.720;2024-02-26T03:23:32;1.60;;;1.07;;
3006;SDS011;1513;47.650;10.720;2024-02-26T03:26:02;1.00;;;0.90;;
3006;SDS011;1513;47.650;10.720;2024-02-26T03:28:29;0.77;;;0.77;;
3006;SDS011;1513;47.650;10.720;2024-02-26T03:30:58;0.80;;;0.60;;
3006;SDS011;1513;47.650;10.720;2024-02-26T03:33:25;1.63;;;0.60;;
3006;SDS011;1513;47.650;10.720;2024-02-26T03:35:51;0.57;;;0.57;;
3006;SDS011;1513;47.650;10.720;2024-02-26T03:38:17;0.67;;;0.67;;
3006;SDS011;1513;47.650;10.720;2024-02-26T03:40:43;0.67;;;0.67;;
3006;SDS011;1513;47.650;10.720;2024-02-26T03:43:10;2.83;;;0.80;;
3006;SDS011;1513;47.650;10.720;2024-02-26T03:45:36;0.70;;;0.70;;
3006;SDS011;1513;47.650;10.720;2024-02-26T03:48:02;1.67;;;0.63;;
3006;SDS011;1513;47.650;10.720;2024-02-26T03:50:29;0.90;;;0.90;;
3006;SDS011;1513;47.650;10.720;2024-02-26T03:52:55;0.70;;;0.70;;
3006;SDS011;1513;47.650;10.720;2024-02-26T03:55:22;1.60;;;0.70;;
3006;SDS011;1513;47.650;10.720;2024-02-26T03:57:50;0.60;;;0.60;;
3006;SDS011;1513;47.650;10.720;2024-02-26T04:00:17;0.70;;;0.70;;
3006;SDS011;1513;47.650;10.720;2024-02-26T04:02:43;0.60;;;0.60;;
3006;SDS011;1513;47.650;10.720;2024-02-26T04:05:10;0.53;;;0.50;;
3006;SDS011;1513;47.650;10.720;2024-02-26T04:07:36;0.80;;;0.70;;
3006;SDS011;1513;47.650;10.720;2024-02-26T04:10:03;0.70;;;0.60;;
3006;SDS011;1513;47.650;10.720;2024-02-26T04:12:30;1.10;;;0.90;;
3006;SDS011;1513;47.650;10.720;2024-02-26T04:14:56;0.70;;;0.67;;
3006;SDS011;1513;47.650;10.720;2024-02-26T04:17:22;0.80;;;0.77;;
3006;SDS011;1513;47.650;10.720;2024-02-26T04:19:49;0.60;;;0.60;;
3006;SDS011;1513;47.650;10.720;2024-02-26T04:22:15;1.17;;;0.70;;
3006;SDS011;1513;47.650;10.720;2024-02-26T04:24:41;0.93;;;0.90;;
3006;SDS011;1513;47.650;10.720;2024-02-26T04:27:08;0.80;;;0.80;;
3006;SDS011;1513;47.650;10.720;2024-02-26T04:29:34;0.50;;;0.50;;
3006;SDS011;1513;47.650;10.720;2024-02-26T04:32:00;0.77;;;0.77;;
3006;SDS011;1513;47.650;10.720;2024-02-26T04:34:26;0.63;;;0.63;;
3006;SDS011;1513;47.650;10.720;2024-02-26T04:36:52;1.10;;;0.70;;
3006;SDS011;1513;47.650;10.720;2024-02-26T04:39:19;0.57;;;0.57;;
3006;SDS011;1513;47.650;10.720;2024-02-26T04:41:45;2.23;;;0.57;;
3006;SDS011;1513;47.650;10.720;2024-02-26T04:44:11;0.60;;;0.60;;
3006;SDS011;1513;47.650;10.720;2024-02-26T04:46:37;0.90;;;0.60;;
3006;SDS011;1513;47.650;10.720;2024-02-26T04:49:04;0.50;;;0.50;;
3006;SDS011;1513;47.650;10.720;2024-02-26T04:51:31;0.70;;;0.70;;
3006;SDS011;1513;47.650;10.720;2024-02-26T04:53:57;0.40;;;0.40;;
3006;SDS011;1513;47.650;10.720;2024-02-26T04:56:23;0.87;;;0.70;;
3006;SDS011;1513;47.650;10.720;2024-02-26T04:58:49;0.50;;;0.50;;
3006;SDS011;1513;47.650;10.720;2024-02-26T05:01:16;1.63;;;1.00;;
3006;SDS011;1513;47.650;10.720;2024-02-26T05:03:43;0.73;;;0.60;;
3006;SDS011;1513;47.650;10.720;2024-02-26T05:06:10;0.93;;;0.93;;
3006;SDS011;1513;47.650;10.720;2024-02-26T05:08:36;1.03;;;0.80;;
3006;SDS011;1513;47.650;10.720;2024-02-26T05:11:04;0.40;;;0.40;;
3006;SDS011;1513;47.650;10.720;2024-02-26T05:13:30;0.70;;;0.60;;
3006;SDS011;1513;47.650;10.720;2024-02-26T05:15:57;0.90;;;0.90;;
3006;SDS011;1513;47.650;10.720;2024-02-26T05:18:23;2.50;;;2.30;;
3006;SDS011;1513;47.650;10.720;2024-02-26T05:20:49;2.47;;;2.20;;
3006;SDS011;1513;47.650;10.720;2024-02-26T05:23:15;3.23;;;2.50;;
3006;SDS011;1513;47.650;10.720;2024-02-26T05:25:42;2.30;;;1.50;;
3006;SDS011;1513;47.650;10.720;2024-02-26T05:28:10;2.57;;;1.67;;
3006;SDS011;1513;47.650;10.720;2024-02-26T05:30:36;4.37;;;1.57;;
3006;SDS011;1513;47.650;10.720;2024-02-26T05:33:05;6.40;;;2.80;;
3006;SDS011;1513;47.650;10.720;2024-02-26T05:35:31;3.60;;;2.73;;
3006;SDS011;1513;47.650;10.720;2024-02-26T05:37:57;3.80;;;1.93;;
3006;SDS011;1513;47.650;10.720;2024-02-26T05:40:23;1.00;;;0.90;;
3006;SDS011;1513;47.650;10.720;2024-02-26T05:42:50;1.33;;;1.20;;
3006;SDS011;1513;47.650;10.720;2024-02-26T05:45:17;1.00;;;1.00;;
3006;SDS011;1513;47.650;10.720;2024-02-26T05:47:43;1.07;;;1.07;;
3006;SDS011;1513;47.650;10.720;2024-02-26T05:50:09;0.70;;;0.70;;
3006;SDS011;1513;47.650;10.720;2024-02-26T05:52:36;2.87;;;2.33;;
3006;SDS011;1513;47.650;10.720;2024-02-26T05:55:05;8.97;;;3.43;;
3006;SDS011;1513;47.650;10.720;2024-02-26T05:57:32;5.57;;;3.07;;
3006;SDS011;1513;47.650;10.720;2024-02-26T05:59:59;8.17;;;4.40;;
3006;SDS011;1513;47.650;10.720;2024-02-26T06:02:36;6.40;;;3.47;;
3006;SDS011;1513;47.650;10.720;2024-02-26T06:05:03;7.87;;;4.43;;
3006;SDS011;1513;47.650;10.720;2024-02-26T06:07:29;9.30;;;3.20;;
3006;SDS011;1513;47.650;10.720;2024-02-26T06:09:56;13.93;;;5.27;;
3006;SDS011;1513;47.650;10.720;2024-02-26T06:12:22;9.87;;;5.53;;
3006;SDS011;1513;47.650;10.720;2024-02-26T06:14:48;6.57;;;4.30;;
3006;SDS011;1513;47.650;10.720;2024-02-26T06:17:14;10.53;;;5.20;;
3006;SDS011;1513;47.650;10.720;2024-02-26T06:19:41;9.10;;;5.33;;
3006;SDS011;1513;47.650;10.720;2024-02-26T06:22:07;8.17;;;4.77;;
3006;SDS011;1513;47.650;10.720;2024-02-26T06:24:33;7.70;;;4.60;;
3006;SDS011;1513;47.650;10.720;2024-02-26T06:27:00;9.40;;;3.50;;
3006;SDS011;1513;47.650;10.720;2024-02-26T06:29:26;3.60;;;2.30;;
3006;SDS011;1513;47.650;10.720;2024-02-26T06:31:52;4.97;;;2.87;;
3006;SDS011;1513;47.650;10.720;2024-02-26T06:34:19;3.77;;;1.87;;
3006;SDS011;1513;47.650;10.720;2024-02-26T06:36:45;5.40;;;2.20;;
3006;SDS011;1513;47.650;10.720;2024-02-26T06:39:12;2.63;;;1.77;;
3006;SDS011;1513;47.650;10.720;2024-02-26T06:41:40;3.17;;;1.60;;
3006;SDS011;1513;47.650;10.720;2024-02-26T06:44:06;2.40;;;1.70;;
3006;SDS011;1513;47.650;10.720;2024-02-26T06:46:32;2.93;;;1.03;;
3006;SDS011;1513;47.650;10.720;2024-02-26T06:48:59;1.53;;;1.30;;
3006;SDS011;1513;47.650;10.720;2024-02-26T06:51:25;9.13;;;5.10;;
3006;SDS011;1513;47.650;10.720;2024-02-26T06:53:51;19.27;;;8.70;;
3006;SDS011;1513;47.650;10.720;2024-02-26T06:56:17;18.00;;;7.33;;
3006;SDS011;1513;47.650;10.720;2024-02-26T06:58:43;8.53;;;3.60;;
3006;SDS011;1513;47.650;10.720;2024-02-26T07:01:10;2.73;;;2.17;;
3006;SDS011;1513;47.650;10.720;2024-02-26T07:03:37;2.97;;;2.23;;
3006;SDS011;1513;47.650;10.720;2024-02-26T07:06:05;1.57;;;1.47;;
3006;SDS011;1513;47.650;10.720;2024-02-26T07:08:35;1.77;;;1.27;;
3006;SDS011;1513;47.650;10.720;2024-02-26T07:11:10;1.73;;;0.90;;
3006;SDS011;1513;47.650;10.720;2024-02-26T07:13:37;2.40;;;1.23;;
3006;SDS011;1513;47.650;10.720;2024-02-26T07:16:03;2.07;;;1.20;;
3006;SDS011;1513;47.650;10.720;2024-02-26T07:18:30;1.30;;;1.30;;
3006;SDS011;1513;47.650;10.720;2024-02-26T07:20:56;1.47;;;1.20;;
3006;SDS011;1513;47.650;10.720;2024-02-26T07:23:22;1.43;;;1.33;;
3006;SDS011;1513;47.650;10.720;2024-02-26T07:25:48;0.80;;;0.80;;
3006;SDS011;1513;47.650;10.720;2024-02-26T07:28:18;1.10;;;1.00;;
3006;SDS011;1513;47.650;10.720;2024-02-26T07:30:44;1.00;;;0.80;;
3006;SDS011;1513;47.650;10.720;2024-02-26T07:33:10;1.50;;;1.40;;
3006;SDS011;1513;47.650;10.720;2024-02-26T07:35:37;1.03;;;1.00;;
3006;SDS011;1513;47.650;10.720;2024-02-26T07:38:04;1.57;;;1.20;;
3006;SDS011;1513;47.650;10.720;2024-02-26T07:40:30;1.43;;;1.30;;
3006;SDS011;1513;47.650;10.720;2024-02-26T07:42:56;1.07;;;1.07;;
3006;SDS011;1513;47.650;10.720;2024-02-26T07:45:23;1.60;;;1.50;;
3006;SDS011;1513;47.650;10.720;2024-02-26T07:47:49;2.90;;;2.10;;
3006;SDS011;1513;47.650;10.720;2024-02-26T07:50:18;3.00;;;2.00;;
3006;SDS011;1513;47.650;10.720;2024-02-26T07:52:44;1.27;;;1.17;;
3006;SDS011;1513;47.650;10.720;2024-02-26T07:55:11;2.53;;;1.17;;
3006;SDS011;1513;47.650;10.720;2024-02-26T07:57:37;1.10;;;1.00;;
3006;SDS011;1513;47.650;10.720;2024-02-26T08:00:06;1.37;;;1.27;;
3006;SDS011;1513;47.650;10.720;2024-02-26T08:02:34;1.30;;;1.10;;
3006;SDS011;1513;47.650;10.720;2024-02-26T08:05:04;6.63;;;2.10;;
3006;SDS011;1513;47.650;10.720;2024-02-26T08:07:31;4.70;;;2.93;;
3006;SDS011;1513;47.650;10.720;2024-02-26T08:09:57;10.00;;;4.10;;
3006;SDS011;1513;47.650;10.720;2024-02-26T08:12:23;8.63;;;3.30;;
3006;SDS011;1513;47.650;10.720;2024-02-26T08:14:49;3.03;;;2.77;;
3006;SDS011;1513;47.650;10.720;2024-02-26T08:17:16;4.60;;;3.03;;
3006;SDS011;1513;47.650;10.720;2024-02-26T08:19:42;9.27;;;4.77;;
3006;SDS011;1513;47.650;10.720;2024-02-26T08:22:08;5.43;;;3.80;;
3006;SDS011;1513;47.650;10.720;2024-02-26T08:24:41;6.53;;;4.87;;
3006;SDS011;1513;47.650;10.720;2024-02-26T08:27:07;6.47;;;3.83;;
3006;SDS011;1513;47.650;10.720;2024-02-26T08:29:33;2.90;;;2.53;;
3006;SDS011;1513;47.650;10.720;2024-02-26T08:32:00;3.23;;;2.80;;
3006;SDS011;1513;47.650;10.720;2024-02-26T08:34:26;1.10;;;1.00;;
3006;SDS011;1513;47.650;10.720;2024-02-26T08:36:52;1.27;;;0.90;;
3006;SDS011;1513;47.650;10.720;2024-02-26T08:39:19;0.90;;;0.87;;
3006;SDS011;1513;47.650;10.720;2024-02-26T08:41:45;0.73;;;0.67;;
3006;SDS011;1513;47.650;10.720;2024-02-26T08:44:12;2.80;;;0.90;;
3006;SDS011;1513;47.650;10.720;2024-02-26T08:46:38;1.17;;;0.67;;
3006;SDS011;1513;47.650;10.720;2024-02-26T08:49:04;2.60;;;0.83;;
3006;SDS011;1513;47.650;10.720;2024-02-26T08:51:30;0.80;;;0.77;;
3006;SDS011;1513;47.650;10.720;2024-02-26T08:53:57;1.00;;;0.93;;
3006;SDS011;1513;47.650;10.720;2024-02-26T08:56:23;1.57;;;1.43;;
3006;SDS011;1513;47.650;10.720;2024-02-26T08:58:49;5.03;;;2.53;;
3006;SDS011;1513;47.650;10.720;2024-02-26T09:01:18;1.80;;;1.30;;
3006;SDS011;1513;47.650;10.720;2024-02-26T09:03:45;1.80;;;1.47;;
3006;SDS011;1513;47.650;10.720;2024-02-26T09:06:11;0.83;;;0.83;;
3006;SDS011;1513;47.650;10.720;2024-02-26T09:08:40;1.07;;;0.90;;
3006;SDS011;1513;47.650;10.720;2024-02-26T09:11:06;1.20;;;0.87;;
3006;SDS011;1513;47.650;10.720;2024-02-26T09:13:35;0.70;;;0.70;;
3006;SDS011;1513;47.650;10.720;2024-02-26T09:16:01;0.70;;;0.67;;
3006;SDS011;1513;47.650;10.720;2024-02-26T09:18:27;0.63;;;0.63;;
3006;SDS011;1513;47.650;10.720;2024-02-26T09:20:54;1.57;;;0.87;;
3006;SDS011;1513;47.650;10.720;2024-02-26T09:23:20;0.93;;;0.90;;
3006;SDS011;1513;47.650;10.720;2024-02-26T09:25:46;0.70;;;0.67;;
3006;SDS011;1513;47.650;10.720;2024-02-26T09:28:12;1.07;;;0.60;;
3006;SDS011;1513;47.650;10.720;2024-02-26T09:30:41;1.20;;;1.10;;
3006;SDS011;1513;47.650;10.720;2024-02-26T09:33:10;1.00;;;1.00;;
3006;SDS011;1513;47.650;10.720;2024-02-26T09:35:38;1.10;;;0.93;;
3006;SDS011;1513;47.650;10.720;2024-02-26T09:38:04;2.13;;;2.03;;
3006;SDS011;1513;47.650;10.720;2024-02-26T09:40:30;1.93;;;1.77;;
3006;SDS011;1513;47.650;10.720;2024-02-26T09:42:59;1.30;;;1.20;;
3006;SDS011;1513;47.650;10.720;2024-02-26T09:45:26;0.90;;;0.90;;
3006;SDS011;1513;47.650;10.720;2024-02-26T09:47:55;1.10;;;1.00;;
3006;SDS011;1513;47.650;10.720;2024-02-26T09:50:21;0.77;;;0.77;;
3006;SDS011;1513;47.650;10.720;2024-02-26T09:52:48;0.80;;;0.80;;
3006;SDS011;1513;47.650;10.720;2024-02-26T09:55:14;1.60;;;1.10;;
3006;SDS011;1513;47.650;10.720;2024-02-26T09:57:47;5.43;;;3.00;;
3006;SDS011;1513;47.650;10.720;2024-02-26T10:00:15;1.30;;;1.20;;
3006;SDS011;1513;47.650;10.720;2024-02-26T10:02:46;1.00;;;1.00;;
3006;SDS011;1513;47.650;10.720;2024-02-26T10:05:18;1.30;;;0.77;;
3006;SDS011;1513;47.650;10.720;2024-02-26T10:07:44;1.53;;;1.00;;
3006;SDS011;1513;47.650;10.720;2024-02-26T10:10:11;1.10;;;0.93;;
3006;SDS011;1513;47.650;10.720;2024-02-26T10:12:38;1.10;;;0.67;;
3006;SDS011;1513;47.650;10.720;2024-02-26T10:15:05;0.60;;;0.53;;
3006;SDS011;1513;47.650;10.720;2024-02-26T10:17:31;1.30;;;0.90;;
3006;SDS011;1513;47.650;10.720;2024-02-26T10:20:10;0.87;;;0.87;;
3006;SDS011;1513;47.650;10.720;2024-02-26T10:22:43;0.80;;;0.80;;
3006;SDS011;1513;47.650;10.720;2024-02-26T10:25:10;1.07;;;0.97;;
3006;SDS011;1513;47.650;10.720;2024-02-26T10:27:36;1.20;;;1.10;;
3006;SDS011;1513;47.650;10.720;2024-02-26T10:30:21;1.13;;;0.97;;
3006;SDS011;1513;47.650;10.720;2024-02-26T10:32:48;0.97;;;0.97;;
3006;SDS011;1513;47.650;10.720;2024-02-26T10:35:15;1.17;;;1.10;;
3006;SDS011;1513;47.650;10.720;2024-02-26T10:37:43;1.43;;;1.33;;
3006;SDS011;1513;47.650;10.720;2024-02-26T10:40:13;1.40;;;1.20;;
3006;SDS011;1513;47.650;10.720;2024-02-26T10:42:40;1.43;;;1.33;;
3006;SDS011;1513;47.650;10.720;2024-02-26T10:45:07;2.70;;;1.37;;
3006;SDS011;1513;47.650;10.720;2024-02-26T10:47:38;1.37;;;1.27;;
3006;SDS011;1513;47.650;10.720;2024-02-26T10:50:06;1.50;;;1.20;;
3006;SDS011;1513;47.650;10.720;2024-02-26T10:52:33;0.90;;;0.90;;
3006;SDS011;1513;47.650;10.720;2024-02-26T10:55:01;0.83;;;0.80;;
3006;SDS011;1513;47.650;10.720;2024-02-26T10:57:40;1.07;;;0.87;;
3006;SDS011;1513;47.650;10.720;2024-02-26T11:00:08;2.73;;;1.10;;
3006;SDS011;1513;47.650;10.720;2024-02-26T11:02:40;0.80;;;0.80;;
3006;SDS011;1513;47.650;10.720;2024-02-26T11:05:07;4.50;;;1.53;;
3006;SDS011;1513;47.650;10.720;2024-02-26T11:07:34;1.37;;;1.23;;
3006;SDS011;1513;47.650;10.720;2024-02-26T11:10:02;1.53;;;1.20;;
3006;SDS011;1513;47.650;10.720;2024-02-26T11:12:29;0.67;;;0.67;;
3006;SDS011;1513;47.650;10.720;2024-02-26T11:14:57;0.90;;;0.80;;
3006;SDS011;1513;47.650;10.720;2024-02-26T11:17:27;0.60;;;0.60;;
3006;SDS011;1513;47.650;10.720;2024-02-26T11:19:57;0.50;;;0.40;;
3006;SDS011;1513;47.650;10.720;2024-02-26T11:22:27;0.60;;;0.60;;
3006;SDS011;1513;47.650;10.720;2024-02-26T11:24:54;0.80;;;0.50;;
3006;SDS011;1513;47.650;10.720;2024-02-26T11:27:44;0.50;;;0.50;;
3006;SDS011;1513;47.650;10.720;2024-02-26T11:30:19;0.43;;;0.43;;
3006;SDS011;1513;47.650;10.720;2024-02-26T11:32:46;0.50;;;0.50;;
3006;SDS011;1513;47.650;10.720;2024-02-26T11:35:12;0.93;;;0.50;;
3006;SDS011;1513;47.650;10.720;2024-02-26T11:37:56;0.47;;;0.47;;
3006;SDS011;1513;47.650;10.720;2024-02-26T11:40:26;0.40;;;0.40;;
3006;SDS011;1513;47.650;10.720;2024-02-26T11:42:52;0.50;;;0.50;;
3006;SDS011;1513;47.650;10.720;2024-02-26T11:48:04;0.67;;;0.53;;
3006;SDS011;1513;47.650;10.720;2024-02-26T11:50:53;3.73;;;1.93;;
3006;SDS011;1513;47.650;10.720;2024-02-26T11:53:27;1.37;;;0.60;;
3006;SDS011;1513;47.650;10.720;2024-02-26T11:58:45;4.50;;;1.73;;
3006;SDS011;1513;47.650;10.720;2024-02-26T12:04:23;0.80;;;0.60;;
3006;SDS011;1513;47.650;10.720;2024-02-26T12:06:52;3.30;;;1.60;;
3006;SDS011;1513;47.650;10.720;2024-02-26T12:09:31;1.57;;;0.80;;
3006;SDS011;1513;47.650;10.720;2024-02-26T12:12:08;0.77;;;0.60;;
3006;SDS011;1513;47.650;10.720;2024-02-26T12:14:38;0.90;;;0.70;;
3006;SDS011;1513;47.650;10.720;2024-02-26T12:17:06;0.50;;;0.50;;
3006;SDS011;1513;47.650;10.720;2024-02-26T12:19:34;1.10;;;0.50;;
3006;SDS011;1513;47.650;10.720;2024-02-26T12:22:01;0.60;;;0.60;;
3006;SDS011;1513;47.650;10.720;2024-02-26T12:24:28;0.60;;;0.60;;
3006;SDS011;1513;47.650;10.720;2024-02-26T12:26:54;0.53;;;0.53;;
3006;SDS011;1513;47.650;10.720;2024-02-26T12:29:21;0.87;;;0.60;;
3006;SDS011;1513;47.650;10.720;2024-02-26T12:31:47;1.83;;;1.37;;
3006;SDS011;1513;47.650;10.720;2024-02-26T12:34:13;0.83;;;0.40;;
3006;SDS011;1513;47.650;10.720;2024-02-26T12:36:41;0.40;;;0.30;;
3006;SDS011;1513;47.650;10.720;2024-02-26T12:39:08;0.50;;;0.40;;
3006;SDS011;1513;47.650;10.720;2024-02-26T12:41:34;0.40;;;0.33;;
3006;SDS011;1513;47.650;10.720;2024-02-26T12:44:01;0.40;;;0.40;;
3006;SDS011;1513;47.650;10.720;2024-02-26T12:46:27;0.50;;;0.37;;
3006;SDS011;1513;47.650;10.720;2024-02-26T12:48:58;0.40;;;0.40;;
3006;SDS011;1513;47.650;10.720;2024-02-26T12:51:25;0.40;;;0.30;;
3006;SDS011;1513;47.650;10.720;2024-02-26T12:53:51;0.50;;;0.40;;
3006;SDS011;1513;47.650;10.720;2024-02-26T12:56:18;0.50;;;0.43;;
3006;SDS011;1513;47.650;10.720;2024-02-26T12:58:45;1.90;;;1.33;;
3006;SDS011;1513;47.650;10.720;2024-02-26T13:01:14;0.70;;;0.30;;
3006;SDS011;1513;47.650;10.720;2024-02-26T13:03:40;0.30;;;0.30;;
3006;SDS011;1513;47.650;10.720;2024-02-26T13:06:07;0.40;;;0.37;;
3006;SDS011;1513;47.650;10.720;2024-02-26T13:08:34;0.40;;;0.40;;
3006;SDS011;1513;47.650;10.720;2024-02-26T13:11:00;1.37;;;1.27;;
3006;SDS011;1513;47.650;10.720;2024-02-26T13:13:26;1.20;;;1.10;;
3006;SDS011;1513;47.650;10.720;2024-02-26T13:16:05;0.40;;;0.40;;
3006;SDS011;1513;47.650;10.720;2024-02-26T13:18:33;0.40;;;0.40;;
3006;SDS011;1513;47.650;10.720;2024-02-26T13:21:12;1.90;;;0.83;;
3006;SDS011;1513;47.650;10.720;2024-02-26T13:23:42;1.30;;;1.20;;
3006;SDS011;1513;47.650;10.720;2024-02-26T13:26:08;2.53;;;1.70;;
3006;SDS011;1513;47.650;10.720;2024-02-26T13:28:38;2.73;;;2.23;;
3006;SDS011;1513;47.650;10.720;2024-02-26T13:31:04;1.50;;;1.40;;
3006;SDS011;1513;47.650;10.720;2024-02-26T13:33:33;1.10;;;1.00;;
3006;SDS011;1513;47.650;10.720;2024-02-26T13:35:59;0.60;;;0.60;;
3006;SDS011;1513;47.650;10.720;2024-02-26T13:38:26;2.33;;;0.80;;
3006;SDS011;1513;47.650;10.720;2024-02-26T13:40:53;1.97;;;1.50;;
3006;SDS011;1513;47.650;10.720;2024-02-26T13:43:19;3.73;;;2.20;;
3006;SDS011;1513;47.650;10.720;2024-02-26T13:45:46;7.90;;;5.10;;
3006;SDS011;1513;47.650;10.720;2024-02-26T13:48:12;9.50;;;4.07;;
3006;SDS011;1513;47.650;10.720;2024-02-26T13:50:39;8.03;;;4.10;;
3006;SDS011;1513;47.650;10.720;2024-02-26T13:53:08;0.70;;;0.50;;
3006;SDS011;1513;47.650;10.720;2024-02-26T13:55:35;7.27;;;4.20;;
3006;SDS011;1513;47.650;10.720;2024-02-26T13:58:01;8.20;;;4.80;;
3006;SDS011;1513;47.650;10.720;2024-02-26T14:00:28;6.33;;;3.60;;
3006;SDS011;1513;47.650;10.720;2024-02-26T14:02:57;4.90;;;3.30;;
3006;SDS011;1513;47.650;10.720;2024-02-26T14:05:24;4.77;;;2.80;;
3006;SDS011;1513;47.650;10.720;2024-02-26T14:07:50;3.83;;;1.80;;
3006;SDS011;1513;47.650;10.720;2024-02-26T14:10:17;9.90;;;4.90;;
3006;SDS011;1513;47.650;10.720;2024-02-26T14:12:43;7.20;;;4.00;;
3006;SDS011;1513;47.650;10.720;2024-02-26T14:15:09;9.67;;;7.03;;
3006;SDS011;1513;47.650;10.720;2024-02-26T14:17:36;2.97;;;2.67;;
3006;SDS011;1513;47.650;10.720;2024-02-26T14:20:02;4.20;;;3.13;;
3006;SDS011;1513;47.650;10.720;2024-02-26T14:22:29;5.70;;;2.93;;
3006;SDS011;1513;47.650;10.720;2024-02-26T14:24:56;2.50;;;2.30;;
3006;SDS011;1513;47.650;10.720;2024-02-26T14:27:22;6.13;;;2.80;;
3006;SDS011;1513;47.650;10.720;2024-02-26T14:29:49;7.97;;;4.90;;
3006;SDS011;1513;47.650;10.720;2024-02-26T14:32:15;3.50;;;2.50;;
3006;SDS011;1513;47.650;10.720;2024-02-26T14:34:42;4.27;;;2.13;;
3006;SDS011;1513;47.650;10.720;2024-02-26T14:37:10;3.33;;;2.23;;
3006;SDS011;1513;47.650;10.720;2024-02-26T14:39:37;1.70;;;1.60;;
3006;SDS011;1513;47.650;10.720;2024-02-26T14:42:03;1.50;;;1.10;;
3006;SDS011;1513;47.650;10.720;2024-02-26T14:44:30;6.53;;;1.20;;
3006;SDS011;1513;47.650;10.720;2024-02-26T14:46:56;1.37;;;1.27;;
3006;SDS011;1513;47.650;10.720;2024-02-26T14:49:23;2.10;;;1.90;;
3006;SDS011;1513;47.650;10.720;2024-02-26T14:51:49;3.07;;;2.00;;
3006;SDS011;1513;47.650;10.720;2024-02-26T14:54:15;2.33;;;2.00;;
3006;SDS011;1513;47.650;10.720;2024-02-26T14:56:41;4.43;;;2.43;;
3006;SDS011;1513;47.650;10.720;2024-02-26T14:59:07;3.30;;;2.10;;
3006;SDS011;1513;47.650;10.720;2024-02-26T15:01:34;4.97;;;2.53;;
3006;SDS011;1513;47.650;10.720;2024-02-26T15:04:00;2.37;;;1.60;;
3006;SDS011;1513;47.650;10.720;2024-02-26T15:06:26;2.30;;;2.10;;
3006;SDS011;1513;47.650;10.720;2024-02-26T15:08:52;1.93;;;1.20;;